Terminal Aerodrome Forecast
Issued by NWS Cleveland, OH

Home | Current Version | Previous Version | Graphics & Text | Print | Product List | Glossary On
Versions: 1 2 3 4 5 6 7 8 9 10 11 12 13 14 15 16
189
FTUS41 KCLE 141127
TAFERI
TAF
KERI 141127Z 1412/1512 08007KT P6SM BKN110
     FM141800 34004KT P6SM OVC090
     FM150000 29004KT P6SM BKN200=

USA.gov is the U.S. government's official web portal to all federal, state and local government web resources and services.